Time;durP1;ratioP1;P1;durP2;ratioP2;P2;SDS_P1;SDS_P2;PMS_P1;PMS_P2;Temp;Humidity;BMP_temperature;BMP_pressure;BME280_temperature;BME280_humidity;BME280_pressure;Samples;Min_cycle;Max_cycle;Signal;HPM_P1;HPM_P2
2022/10/15 00:01:25;;;;;;;9.80;1.27;;;;;;;8.33;100.00;98744.13;5053893;28;20146;-93
2022/10/15 00:03:52;;;;;;;4.88;1.10;;;;;;;8.32;100.00;98748.59;5036820;28;20032;-93
2022/10/15 00:06:20;;;;;;;8.43;1.17;;;;;;;8.34;100.00;98745.78;5075776;28;20027;-94
2022/10/15 00:08:48;;;;;;;9.65;1.17;;;;;;;8.35;100.00;98749.22;5047877;28;20036;-93
2022/10/15 00:11:24;;;;;;;9.98;1.40;;;;;;;8.37;100.00;98742.81;5040779;28;20024;-94
2022/10/15 00:13:54;;;;;;;6.75;1.13;;;;;;;8.42;100.00;98745.75;5041131;28;20059;-94
2022/10/15 00:16:24;;;;;;;5.25;1.15;;;;;;;8.46;100.00;98726.97;5073578;28;20028;-93
2022/10/15 00:18:54;;;;;;;16.05;1.30;;;;;;;8.50;100.00;98717.72;5040034;28;20040;-94
2022/10/15 00:21:21;;;;;;;11.43;1.42;;;;;;;8.51;100.00;98712.28;5016266;28;20029;-94
2022/10/15 00:23:49;;;;;;;6.40;1.17;;;;;;;8.56;100.00;98698.63;5054941;28;20115;-94
2022/10/15 00:26:24;;;;;;;8.80;2.15;;;;;;;8.61;100.00;98700.72;5035554;28;20028;-93
2022/10/15 00:28:54;;;;;;;;;;;;;;;8.55;100.00;98686.47;5063940;28;20115;-93
2022/10/15 00:31:25;;;;;;;4.45;0.90;;;;;;;8.64;100.00;98668.78;5038587;28;19916;-94
2022/10/15 00:33:57;;;;;;;8.68;0.80;;;;;;;8.66;100.00;98659.69;5040200;28;20085;-91
2022/10/15 00:36:36;;;;;;;10.77;0.90;;;;;;;8.72;100.00;98660.00;5040038;28;20089;-93
2022/10/15 00:39:07;;;;;;;7.75;0.93;;;;;;;8.74;100.00;98660.66;5036884;28;20040;-93
2022/10/15 00:41:41;;;;;;;8.07;1.27;;;;;;;8.77;100.00;98658.50;5054733;28;20033;-94
2022/10/15 00:44:20;;;;;;;7.15;1.30;;;;;;;8.81;100.00;98665.03;5035652;28;20039;-94
2022/10/15 00:47:13;;;;;;;8.68;1.08;;;;;;;8.80;100.00;98652.88;5051669;28;20134;-94
2022/10/15 00:49:51;;;;;;;7.63;0.90;;;;;;;8.84;100.00;98647.25;5051147;28;20059;-93
2022/10/15 00:52:31;;;;;;;3.70;0.88;;;;;;;8.83;100.00;98633.22;5052080;28;20032;-95
2022/10/15 00:55:12;;;;;;;5.68;0.95;;;;;;;8.83;100.00;98632.41;5036607;28;20487;-93
2022/10/15 00:57:43;;;;;;;9.05;1.52;;;;;;;8.81;100.00;98632.59;5054716;28;20094;-95
2022/10/15 01:00:15;;;;;;;9.80;1.20;;;;;;;8.82;100.00;98626.34;5046392;28;20031;-94
2022/10/15 01:02:45;;;;;;;7.97;1.13;;;;;;;8.85;100.00;98628.63;5043970;28;20661;-94
2022/10/15 01:05:17;;;;;;;10.43;1.35;;;;;;;8.86;100.00;98617.06;5047788;28;20082;-95
2022/10/15 01:07:45;;;;;;;6.30;0.93;;;;;;;8.85;100.00;98618.09;5053684;28;20035;-93
2022/10/15 01:10:19;;;;;;;9.77;0.95;;;;;;;8.88;100.00;98614.25;5039264;28;20472;-93
2022/10/15 01:13:07;;;;;;;7.15;0.90;;;;;;;8.88;100.00;98609.81;5060170;28;20052;-93
2022/10/15 01:15:48;;;;;;;10.10;1.20;;;;;;;8.90;100.00;98605.16;5043052;28;20035;-96
2022/10/15 01:18:51;;;;;;;6.22;0.93;;;;;;;8.90;100.00;98605.16;5047950;28;20032;-92
2022/10/15 01:21:49;;;;;;;7.30;1.10;;;;;;;8.93;100.00;98596.09;5078915;28;20495;-95
2022/10/15 01:24:36;;;;;;;11.07;1.65;;;;;;;8.99;100.00;98599.81;5060849;28;20058;-93
2022/10/15 01:27:29;;;;;;;11.57;1.35;;;;;;;9.01;100.00;98603.94;5043749;28;20567;-94
2022/10/15 01:30:19;;;;;;;10.80;1.33;;;;;;;9.09;100.00;98592.50;5031319;28;20041;-93
2022/10/15 01:33:10;;;;;;;9.68;1.42;;;;;;;9.13;100.00;98606.09;5059057;28;20511;-93
2022/10/15 01:35:50;;;;;;;4.93;0.77;;;;;;;9.16;100.00;98608.38;5035648;28;20050;-92
2022/10/15 01:39:06;;;;;;;3.97;0.70;;;;;;;9.14;100.00;98595.38;5054378;28;20040;-93
2022/10/15 01:41:49;;;;;;;5.35;0.40;;;;;;;9.01;100.00;98597.84;5040074;28;20059;-91
2022/10/15 01:44:26;;;;;;;3.13;0.40;;;;;;;8.88;100.00;98574.75;5053427;28;20036;-92
2022/10/15 01:47:21;;;;;;;5.05;0.55;;;;;;;8.78;100.00;98586.34;5060206;28;20500;-94
2022/10/15 01:50:00;;;;;;;3.90;0.52;;;;;;;8.77;100.00;98600.53;5058430;28;20068;-90
2022/10/15 01:52:41;;;;;;;4.47;0.40;;;;;;;8.69;100.00;98603.22;5067114;28;20032;-88
2022/10/15 01:55:14;;;;;;;4.07;0.40;;;;;;;8.58;100.00;98601.84;5046015;28;20035;-90
2022/10/15 01:57:47;;;;;;;5.40;1.52;;;;;;;8.49;100.00;98602.88;5043117;28;20039;-91
2022/10/15 02:00:16;;;;;;;0.38;0.10;;;;;;;8.48;100.00;98599.41;5042888;28;20480;-92
2022/10/15 02:02:46;;;;;;;1.67;0.32;;;;;;;8.38;100.00;98597.00;5043918;28;20066;-90
2022/10/15 02:05:32;;;;;;;3.72;0.30;;;;;;;8.34;100.00;98594.91;5070693;28;20032;-90
2022/10/15 02:08:24;;;;;;;1.15;0.55;;;;;;;8.27;100.00;98586.88;5056073;28;20113;-91
2022/10/15 02:11:12;;;;;;;0.32;0.08;;;;;;;8.24;100.00;98576.72;5075722;28;20032;-92
2022/10/15 02:14:15;;;;;;;0.55;0.10;;;;;;;8.16;100.00;98574.94;5060001;28;20392;-89
2022/10/15 02:17:10;;;;;;;1.55;0.45;;;;;;;8.11;100.00;98593.06;5056516;28;20036;-94
2022/10/15 02:20:07;;;;;;;2.73;0.20;;;;;;;8.03;100.00;98565.00;5046035;28;20036;-91
2022/10/15 02:23:03;;;;;;;1.40;0.20;;;;;;;7.95;100.00;98586.91;5068522;28;20480;-91
2022/10/15 02:25:40;;;;;;;1.85;0.47;;;;;;;7.96;100.00;98575.44;5038662;28;20853;-91
2022/10/15 02:28:12;;;;;;;1.90;0.10;;;;;;;7.96;100.00;98546.50;5043150;28;20074;-93
2022/10/15 02:30:52;;;;;;;1.65;0.20;;;;;;;7.98;100.00;98509.47;5064383;28;20036;-91
2022/10/15 02:33:23;;;;;;;2.40;0.17;;;;;;;8.01;100.00;98490.72;5043995;28;20040;-92
2022/10/15 02:35:55;;;;;;;1.33;0.30;;;;;;;7.98;100.00;98536.59;5076374;28;20127;-93
2022/10/15 02:38:43;;;;;;;0.50;0.08;;;;;;;7.96;100.00;98503.56;5062773;28;20067;-91
2022/10/15 02:41:13;;;;;;;1.90;0.20;;;;;;;7.92;100.00;98492.56;5077993;28;20040;-91
2022/10/15 02:43:44;;;;;;;0.25;0.10;;;;;;;7.91;100.00;98488.31;5063066;28;20039;-92
2022/10/15 02:46:15;;;;;;;1.75;0.15;;;;;;;7.95;100.00;98492.22;5054587;28;20048;-93
2022/10/15 02:48:47;;;;;;;3.03;0.20;;;;;;;7.92;100.00;98453.09;5053466;28;20480;-92
2022/10/15 02:51:24;;;;;;;;;;;;;;;7.85;100.00;98479.28;5075806;28;20028;-93
2022/10/15 02:53:52;;;;;;;1.27;0.20;;;;;;;7.89;100.00;98492.91;5078799;28;20006;-93
2022/10/15 02:56:20;;;;;;;0.43;0.17;;;;;;;7.92;100.00;98498.66;5076211;28;20128;-94
2022/10/15 02:58:48;;;;;;;1.88;0.20;;;;;;;7.91;100.00;98486.50;5050796;28;20449;-93
2022/10/15 03:01:17;;;;;;;0.55;0.20;;;;;;;7.98;100.00;98496.31;5039159;28;20036;-93
2022/10/15 03:03:45;;;;;;;0.57;0.10;;;;;;;7.94;100.00;98486.16;5035337;28;20036;-92
2022/10/15 03:06:14;;;;;;;4.72;0.20;;;;;;;7.90;100.00;98482.22;5058248;28;20033;-93
2022/10/15 03:08:43;;;;;;;5.78;0.30;;;;;;;7.85;100.00;98481.13;5027165;28;20060;-92
2022/10/15 03:11:12;;;;;;;0.90;0.10;;;;;;;7.88;100.00;98488.66;5041220;28;20462;-92
2022/10/15 03:13:40;;;;;;;0.32;0.10;;;;;;;7.78;100.00;98488.88;5054124;28;20029;-92
2022/10/15 03:16:09;;;;;;;1.98;0.25;;;;;;;7.73;100.00;98505.19;5021868;28;20040;-92
2022/10/15 03:18:38;;;;;;;1.83;0.10;;;;;;;7.63;100.00;98494.88;5035728;28;20088;-92
2022/10/15 03:21:05;;;;;;;1.13;0.20;;;;;;;7.57;100.00;98495.59;5040203;28;20033;-93
2022/10/15 03:23:33;;;;;;;1.48;0.10;;;;;;;7.45;100.00;98474.13;5040850;28;20033;-92
2022/10/15 03:26:07;;;;;;;1.00;0.10;;;;;;;7.36;100.00;98468.09;5052029;28;20481;-91
2022/10/15 03:28:37;;;;;;;1.02;0.20;;;;;;;7.30;100.00;98472.25;5041113;28;20043;-92
2022/10/15 03:31:06;;;;;;;0.43;0.25;;;;;;;7.27;100.00;98479.63;5040005;28;20166;-92
2022/10/15 03:33:34;;;;;;;0.45;0.10;;;;;;;7.16;100.00;98470.34;5029158;28;20119;-93
2022/10/15 03:36:03;;;;;;;0.38;0.10;;;;;;;7.12;100.00;98474.31;5021247;28;20132;-92
2022/10/15 03:38:32;;;;;;;1.90;0.10;;;;;;;7.12;100.00;98471.66;5038587;28;20178;-92
2022/10/15 03:41:07;;;;;;;1.48;0.10;;;;;;;7.02;100.00;98466.63;5056499;28;20064;-94
2022/10/15 03:43:43;;;;;;;3.80;0.43;;;;;;;7.02;100.00;98477.13;5025977;28;20115;-93
2022/10/15 03:46:15;;;;;;;0.20;0.10;;;;;;;6.97;100.00;98482.88;5024865;28;20036;-93
2022/10/15 03:48:50;;;;;;;2.88;0.22;;;;;;;6.98;100.00;98488.94;5059182;28;20042;-93
2022/10/15 03:51:22;;;;;;;1.60;0.10;;;;;;;6.89;100.00;98467.16;5040888;28;20036;-93
2022/10/15 03:53:55;;;;;;;1.17;0.17;;;;;;;6.89;100.00;98475.84;5034618;28;20044;-92
2022/10/15 03:56:25;;;;;;;2.22;0.30;;;;;;;6.92;100.00;98482.56;5020279;28;20075;-93
2022/10/15 03:59:01;;;;;;;1.50;0.20;;;;;;;6.90;100.00;98488.00;5068305;28;20052;-92
2022/10/15 04:01:30;;;;;;;1.63;0.30;;;;;;;6.87;100.00;98471.75;5043894;28;20062;-92
2022/10/15 04:04:03;;;;;;;1.55;0.17;;;;;;;6.93;100.00;98482.41;5066533;28;20077;-93
2022/10/15 04:06:33;;;;;;;1.88;0.57;;;;;;;6.89;100.00;98475.03;5059882;28;20031;-94
2022/10/15 04:09:04;;;;;;;0.10;0.05;;;;;;;6.86;100.00;98468.31;5066586;28;20506;-92
2022/10/15 04:11:32;;;;;;;0.90;0.20;;;;;;;6.86;100.00;98467.50;5037593;28;20036;-93
2022/10/15 04:14:03;;;;;;;3.28;0.20;;;;;;;6.81;100.00;98460.94;5060674;28;20032;-93
2022/10/15 04:16:33;;;;;;;1.65;0.20;;;;;;;6.78;100.00;98471.78;5053310;28;20108;-94
2022/10/15 04:19:10;;;;;;;1.55;0.10;;;;;;;6.81;100.00;98478.50;5061110;28;20065;-95
2022/10/15 04:21:39;;;;;;;0.55;0.20;;;;;;;6.82;100.00;98483.59;5058494;28;20032;-93
2022/10/15 04:24:09;;;;;;;13.30;0.30;;;;;;;6.80;100.00;98464.53;5043736;28;20031;-93
2022/10/15 04:26:41;;;;;;;2.30;0.10;;;;;;;6.83;100.00;98469.47;5043579;28;20122;-94
2022/10/15 04:29:09;;;;;;;2.10;0.10;;;;;;;6.80;100.00;98476.88;5055150;28;20047;-93
2022/10/15 04:31:40;;;;;;;0.60;0.10;;;;;;;6.79;100.00;98476.03;5076302;28;20043;-95
2022/10/15 04:34:11;;;;;;;1.48;0.30;;;;;;;6.80;100.00;98469.78;5040370;28;20175;-95
2022/10/15 04:36:43;;;;;;;3.25;0.30;;;;;;;6.79;100.00;98455.03;5052176;28;20146;-95
2022/10/15 04:39:22;;;;;;;2.00;0.10;;;;;;;6.78;100.00;98456.03;5070073;28;20043;-94
2022/10/15 04:41:50;;;;;;;1.50;0.10;;;;;;;6.76;100.00;98462.44;5049067;28;20051;-95
2022/10/15 04:44:29;;;;;;;0.98;0.10;;;;;;;6.72;100.00;98464.56;5044749;28;20430;-94
2022/10/15 04:46:59;;;;;;;0.30;0.20;;;;;;;6.69;100.00;98452.59;5046650;28;20031;-94
2022/10/15 04:49:40;;;;;;;0.40;0.20;;;;;;;6.66;100.00;98454.72;5038181;28;20048;-95
2022/10/15 04:52:25;;;;;;;2.78;0.40;;;;;;;6.69;100.00;98459.66;5061923;28;20043;-95
2022/10/15 04:54:57;;;;;;;0.45;0.20;;;;;;;6.66;100.00;98468.69;5050720;28;20031;-94
2022/10/15 04:57:29;;;;;;;1.08;0.20;;;;;;;6.65;100.00;98459.19;5059241;28;20101;-94
2022/10/15 04:59:59;;;;;;;1.95;0.10;;;;;;;6.63;100.00;98463.78;5033909;28;20055;-95
2022/10/15 05:02:34;;;;;;;;;;;;;;;6.55;100.00;98463.78;5056326;28;20044;-94
2022/10/15 05:05:20;;;;;;;1.10;0.17;;;;;;;6.58;100.00;98474.78;5038538;28;19912;-95
2022/10/15 05:08:02;;;;;;;0.90;0.20;;;;;;;6.52;100.00;98469.38;5021328;28;20089;-94
2022/10/15 05:10:34;;;;;;;1.52;0.20;;;;;;;6.51;100.00;98480.88;5037714;28;20024;-94
2022/10/15 05:13:09;;;;;;;2.65;0.30;;;;;;;6.54;100.00;98491.03;5023195;28;20033;-93
2022/10/15 05:15:38;;;;;;;4.38;0.38;;;;;;;6.53;100.00;98479.69;5033595;28;20036;-94
2022/10/15 05:18:08;;;;;;;2.75;0.40;;;;;;;6.52;100.00;98472.81;5033201;28;20037;-94
2022/10/15 05:20:49;;;;;;;3.30;0.38;;;;;;;6.52;100.00;98457.06;5034591;28;20036;-94
2022/10/15 05:23:19;;;;;;;2.33;0.40;;;;;;;6.54;100.00;98467.41;5040604;28;20043;-94
2022/10/15 05:26:13;;;;;;;1.55;0.20;;;;;;;6.58;100.00;98472.16;5042867;28;20082;-93
2022/10/15 05:28:41;;;;;;;2.25;0.10;;;;;;;6.63;100.00;98474.28;5040073;28;20033;-93
2022/10/15 05:31:14;;;;;;;2.88;0.40;;;;;;;6.64;100.00;98468.03;5033835;28;20032;-93
2022/10/15 05:33:45;;;;;;;2.97;0.30;;;;;;;6.68;100.00;98473.78;5030411;28;20056;-94
2022/10/15 05:36:16;;;;;;;2.03;0.30;;;;;;;6.72;100.00;98474.25;5055008;28;20472;-94
2022/10/15 05:38:48;;;;;;;1.95;0.25;;;;;;;6.76;100.00;98475.56;5024273;28;20086;-94
2022/10/15 05:41:18;;;;;;;2.45;0.35;;;;;;;6.71;100.00;98452.44;5023507;28;20025;-95
2022/10/15 05:43:48;;;;;;;7.22;0.55;;;;;;;6.68;100.00;98453.59;5039965;28;20209;-95
2022/10/15 05:46:27;;;;;;;2.70;0.32;;;;;;;6.67;100.00;98459.03;5039871;28;20043;-93
2022/10/15 05:49:00;;;;;;;3.45;0.63;;;;;;;6.63;100.00;98457.69;5023906;28;20119;-93
2022/10/15 05:51:39;;;;;;;3.97;0.40;;;;;;;6.60;100.00;98464.13;5040245;28;20047;-93
2022/10/15 05:54:13;;;;;;;7.80;0.43;;;;;;;6.61;100.00;98459.69;5041852;28;20047;-94
2022/10/15 05:56:51;;;;;;;2.83;0.30;;;;;;;6.58;100.00;98429.31;5040591;28;20492;-94
2022/10/15 05:59:24;;;;;;;3.55;0.30;;;;;;;6.60;100.00;98442.28;5055261;28;20051;-94
2022/10/15 06:01:54;;;;;;;2.25;0.60;;;;;;;6.60;100.00;98444.91;5089741;28;20491;-95
2022/10/15 06:04:31;;;;;;;4.15;0.40;;;;;;;6.57;100.00;98446.06;5060965;28;20055;-95
2022/10/15 06:07:01;;;;;;;9.52;0.50;;;;;;;6.53;100.00;98439.53;5050662;28;20111;-94
2022/10/15 06:09:34;;;;;;;4.68;0.45;;;;;;;6.49;100.00;98435.59;5062500;28;20047;-95
2022/10/15 06:12:07;;;;;;;2.85;0.40;;;;;;;6.48;100.00;98442.66;5042655;28;20028;-94
2022/10/15 06:14:37;;;;;;;5.47;0.40;;;;;;;6.44;100.00;98447.41;5047360;28;20044;-94
2022/10/15 06:17:10;;;;;;;5.40;0.40;;;;;;;6.39;100.00;98448.88;5067999;28;20028;-95
2022/10/15 06:19:42;;;;;;;12.18;0.57;;;;;;;6.34;100.00;98457.25;5044490;28;20180;-94
2022/10/15 06:22:12;;;;;;;5.65;0.55;;;;;;;6.25;100.00;98451.22;5045858;28;20040;-94
2022/10/15 06:24:40;;;;;;;3.08;0.40;;;;;;;6.16;100.00;98457.47;5040031;28;20036;-93
2022/10/15 06:27:14;;;;;;;4.88;0.30;;;;;;;6.13;100.00;98453.34;5066862;28;20058;-94
2022/10/15 06:29:42;;;;;;;7.82;0.43;;;;;;;6.08;100.00;98466.16;5058773;28;20835;-95
2022/10/15 06:32:12;;;;;;;8.55;0.52;;;;;;;6.04;100.00;98457.78;5062547;28;20032;-93
2022/10/15 06:34:44;;;;;;;3.10;0.60;;;;;;;5.99;100.00;98457.41;5059806;28;20484;-94
2022/10/15 06:37:14;;;;;;;2.58;0.30;;;;;;;5.89;100.00;98454.94;5060712;28;20476;-94
2022/10/15 06:39:45;;;;;;;6.82;0.30;;;;;;;5.89;100.00;98454.16;5049934;28;20052;-94
2022/10/15 06:42:13;;;;;;;3.65;0.55;;;;;;;5.82;100.00;98454.81;5044870;28;20040;-94
2022/10/15 06:44:42;;;;;;;3.35;0.30;;;;;;;5.84;100.00;98454.63;5062227;28;20065;-95
2022/10/15 06:47:11;;;;;;;2.45;0.55;;;;;;;5.88;100.00;98465.59;5049699;28;20385;-94
2022/10/15 06:49:41;;;;;;;1.92;0.50;;;;;;;5.85;100.00;98456.28;5030152;28;20036;-93
2022/10/15 06:52:11;;;;;;;2.40;0.40;;;;;;;5.86;100.00;98450.03;5056871;28;20032;-95
2022/10/15 06:54:44;;;;;;;2.72;0.50;;;;;;;5.88;100.00;98452.50;5061325;28;20079;-94
2022/10/15 06:57:15;;;;;;;4.30;0.60;;;;;;;5.91;100.00;98455.63;5060108;28;20036;-95
2022/10/15 06:59:43;;;;;;;5.57;0.50;;;;;;;5.90;100.00;98453.16;5056016;28;20055;-93
2022/10/15 07:02:14;;;;;;;3.35;0.43;;;;;;;5.98;100.00;98442.69;5047106;28;20028;-92
2022/10/15 07:04:49;;;;;;;3.08;0.60;;;;;;;6.07;100.00;98448.75;5044287;28;20058;-94
2022/10/15 07:07:21;;;;;;;3.20;0.45;;;;;;;6.14;100.00;98449.75;5048170;28;20116;-93
2022/10/15 07:09:54;;;;;;;7.10;0.88;;;;;;;6.21;100.00;98449.91;5044917;28;20535;-92
2022/10/15 07:12:26;;;;;;;4.18;0.55;;;;;;;6.28;100.00;98453.50;5059382;28;20599;-93
2022/10/15 07:14:55;;;;;;;4.28;0.77;;;;;;;6.35;100.00;98453.66;5058174;28;20032;-94
2022/10/15 07:17:34;;;;;;;5.72;0.82;;;;;;;6.36;100.00;98455.28;5058148;28;20039;-93
2022/10/15 07:20:07;;;;;;;4.70;0.55;;;;;;;6.48;100.00;98449.72;5046528;28;20059;-94
2022/10/15 07:22:40;;;;;;;6.30;0.60;;;;;;;6.50;100.00;98438.03;5040243;28;20036;-95
2022/10/15 07:25:13;;;;;;;5.97;0.80;;;;;;;6.54;100.00;98431.50;5063764;28;20112;-94
2022/10/15 07:27:42;;;;;;;5.97;0.50;;;;;;;6.63;100.00;98431.44;5040666;28;20139;-94
2022/10/15 07:30:10;;;;;;;15.02;0.88;;;;;;;6.75;100.00;98427.50;5068194;28;20032;-93
2022/10/15 07:32:46;;;;;;;6.20;0.95;;;;;;;6.86;100.00;98422.84;5064023;28;20035;-95
2022/10/15 07:35:15;;;;;;;6.35;0.57;;;;;;;6.95;100.00;98419.19;5044562;28;20032;-94
2022/10/15 07:37:51;;;;;;;5.93;1.45;;;;;;;7.09;100.00;98430.78;5081387;28;20095;-94
2022/10/15 07:40:24;;;;;;;7.43;0.95;;;;;;;7.16;100.00;98436.19;5054268;28;20028;-94
2022/10/15 07:42:56;;;;;;;4.97;0.75;;;;;;;7.28;100.00;98447.09;5042867;28;20059;-94
2022/10/15 07:45:35;;;;;;;7.28;1.08;;;;;;;7.38;100.00;98437.22;5068192;28;20042;-95
2022/10/15 07:48:06;;;;;;;8.23;1.10;;;;;;;7.50;100.00;98449.97;5044750;28;20040;-94
2022/10/15 07:50:36;;;;;;;8.00;0.85;;;;;;;7.57;100.00;98448.25;5063352;28;20051;-90
2022/10/15 07:53:07;;;;;;;6.35;1.42;;;;;;;7.70;100.00;98458.19;5045231;28;20040;-94
2022/10/15 07:55:51;;;;;;;6.60;0.85;;;;;;;7.75;100.00;98453.25;5064116;28;20424;-94
2022/10/15 07:58:24;;;;;;;11.27;2.63;;;;;;;7.78;100.00;98454.69;5056422;28;20047;-94
2022/10/15 08:00:53;;;;;;;9.73;0.75;;;;;;;7.86;100.00;98466.97;5042437;28;20029;-94
2022/10/15 08:03:28;;;;;;;13.38;1.35;;;;;;;7.88;100.00;98465.00;5056079;28;20491;-95
2022/10/15 08:06:01;;;;;;;11.93;1.42;;;;;;;7.88;100.00;98462.34;5045343;28;20031;-91
2022/10/15 08:08:29;;;;;;;9.65;1.20;;;;;;;7.89;100.00;98456.91;5043269;28;20044;-94
2022/10/15 08:11:10;;;;;;;6.05;1.30;;;;;;;7.95;100.00;98447.50;5076455;28;20034;-94
2022/10/15 08:13:41;;;;;;;10.23;0.95;;;;;;;7.93;100.00;98444.25;5041612;28;20123;-94
2022/10/15 08:16:16;;;;;;;9.30;1.08;;;;;;;7.96;100.00;98443.88;5053346;28;20028;-94
2022/10/15 08:18:53;;;;;;;6.28;1.08;;;;;;;7.99;100.00;98445.34;5040649;28;20032;-94
2022/10/15 08:21:21;;;;;;;8.40;1.13;;;;;;;8.06;100.00;98448.88;5044188;28;20039;-93
2022/10/15 08:23:50;;;;;;;10.75;2.08;;;;;;;8.09;100.00;98448.53;5059177;28;20033;-93
2022/10/15 08:26:25;;;;;;;9.43;1.67;;;;;;;8.18;100.00;98467.72;5041336;28;20039;-94
2022/10/15 08:28:56;;;;;;;12.68;1.35;;;;;;;8.18;100.00;98476.44;5043692;28;20089;-92
2022/10/15 08:31:30;;;;;;;12.80;1.73;;;;;;;8.20;100.00;98489.41;5060820;28;20549;-93
2022/10/15 08:34:02;;;;;;;12.88;1.42;;;;;;;8.19;100.00;98495.66;5046385;28;20028;-91
2022/10/15 08:36:30;;;;;;;11.05;1.80;;;;;;;8.19;100.00;98500.91;5061248;28;20117;-94
2022/10/15 08:39:01;;;;;;;11.90;1.45;;;;;;;8.12;100.00;98500.00;5060979;28;20059;-91
2022/10/15 08:41:47;;;;;;;9.80;1.60;;;;;;;8.12;100.00;98482.38;5050398;28;21840;-92
2022/10/15 08:44:28;;;;;;;12.88;1.75;;;;;;;8.12;100.00;98477.13;5066981;28;20047;-92
2022/10/15 08:47:14;;;;;;;8.88;1.35;;;;;;;8.11;100.00;98451.81;5065552;28;20055;-93
2022/10/15 08:49:58;;;;;;;12.75;1.20;;;;;;;8.03;100.00;98465.03;5091035;28;20138;-91
2022/10/15 08:53:00;;;;;;;9.80;1.95;;;;;;;8.12;100.00;98473.69;5041913;28;20024;-92
2022/10/15 08:55:40;;;;;;;8.60;1.40;;;;;;;8.14;100.00;98480.41;5041419;28;20534;-92
2022/10/15 08:58:44;;;;;;;14.27;1.63;;;;;;;8.16;100.00;98472.31;5060221;28;20048;-92
2022/10/15 09:01:39;;;;;;;5.93;1.05;;;;;;;8.19;100.00;98477.22;5036397;28;20033;-92
2022/10/15 09:04:17;;;;;;;10.55;0.98;;;;;;;8.21;100.00;98469.97;5065985;28;20047;-93
2022/10/15 09:07:15;;;;;;;9.50;1.33;;;;;;;8.24;100.00;98471.44;5043279;28;20032;-95
2022/10/15 09:09:57;;;;;;;11.38;1.27;;;;;;;8.28;100.00;98463.00;5043452;28;20115;-95
2022/10/15 09:12:56;;;;;;;8.07;1.20;;;;;;;8.29;100.00;98464.66;5047115;28;20039;-94
2022/10/15 09:15:37;;;;;;;9.95;1.42;;;;;;;8.34;100.00;98468.56;5042399;28;20082;-93
2022/10/15 09:19:26;;;;;;;8.30;1.10;;;;;;;8.38;100.00;98460.13;5004680;28;20400;-93
2022/10/15 09:22:06;;;;;;;7.78;1.42;;;;;;;8.44;100.00;98456.75;4979656;28;20044;-94
2022/10/15 09:24:39;;;;;;;7.25;0.98;;;;;;;8.51;100.00;98458.69;5060694;28;20043;-92
2022/10/15 09:27:46;;;;;;;;;;;;;;;8.36;100.00;98438.41;5077966;28;20102;-92
2022/10/15 09:30:45;;;;;;;10.38;1.23;;;;;;;8.41;100.00;98401.84;5048060;28;19912;-94
2022/10/15 09:33:15;;;;;;;9.68;1.58;;;;;;;8.46;100.00;98411.03;5035938;28;20119;-92
2022/10/15 09:35:54;;;;;;;4.15;0.55;;;;;;;8.48;100.00;98407.22;5037572;28;20052;-92
2022/10/15 09:38:57;;;;;;;7.00;0.90;;;;;;;8.50;100.00;98407.84;5079565;28;20035;-91
2022/10/15 09:41:41;;;;;;;5.28;1.10;;;;;;;8.52;100.00;98389.25;5021177;28;20044;-85
2022/10/15 09:44:14;;;;;;;3.75;0.57;;;;;;;8.56;100.00;98390.53;5061920;28;20488;-92
2022/10/15 09:46:55;;;;;;;5.50;0.85;;;;;;;8.63;100.00;98388.00;5059792;28;20122;-92
2022/10/15 09:49:30;;;;;;;2.20;0.47;;;;;;;8.63;100.00;98382.72;5057165;28;20123;-93
2022/10/15 09:52:25;;;;;;;6.10;0.85;;;;;;;8.64;100.00;98390.44;5042808;28;20032;-92
2022/10/15 09:55:26;;;;;;;2.63;0.40;;;;;;;8.62;100.00;98386.34;5072018;28;20048;-91
2022/10/15 10:34:38;;;;;;;3.78;0.70;;;;;;;10.11;100.00;98377.25;5011827;28;20186;-92
2022/10/15 10:37:14;;;;;;;2.38;0.30;;;;;;;10.10;100.00;98367.69;5078409;28;20032;-90
2022/10/15 10:40:01;;;;;;;4.85;0.63;;;;;;;10.19;100.00;98379.75;5041679;28;20062;-93
2022/10/15 10:42:43;;;;;;;;;;;;;;;;;;;;;
2022/10/15 10:45:26;;;;;;;5.10;0.70;;;;;;;10.50;100.00;98394.41;5054751;28;20075;-92
2022/10/15 10:47:55;;;;;;;2.92;0.73;;;;;;;10.49;100.00;98378.75;5053032;28;20178;-94
2022/10/15 10:50:39;;;;;;;4.97;0.80;;;;;;;10.43;100.00;98394.31;5060154;28;20060;-92
2022/10/15 10:53:24;;;;;;;7.03;1.10;;;;;;;10.37;100.00;98395.09;5045981;28;20028;-91
2022/10/15 10:55:56;;;;;;;5.70;0.68;;;;;;;10.38;100.00;98386.16;5061767;28;20032;-90
2022/10/15 10:58:32;;;;;;;6.25;1.17;;;;;;;10.32;100.00;98378.22;5048496;28;20496;-91
2022/10/15 11:01:10;;;;;;;3.97;0.95;;;;;;;10.29;100.00;98382.88;5050917;28;20046;-91
2022/10/15 11:03:43;;;;;;;5.95;1.08;;;;;;;10.27;100.00;98382.22;5041574;28;20036;-93
2022/10/15 11:06:31;;;;;;;9.82;1.05;;;;;;;10.28;100.00;98385.69;5076037;28;20062;-93
2022/10/15 11:09:17;;;;;;;7.50;0.95;;;;;;;10.26;100.00;98366.59;5033493;28;20048;-93
2022/10/15 11:12:12;;;;;;;8.20;1.05;;;;;;;10.32;100.00;98380.84;5076946;28;20610;-93
2022/10/15 11:14:54;;;;;;;9.15;1.63;;;;;;;10.38;100.00;98385.34;5039960;28;20040;-91
2022/10/15 11:17:51;;;;;;;5.97;0.80;;;;;;;10.40;100.00;98380.72;5057208;28;20040;-91
2022/10/15 11:20:37;;;;;;;13.48;1.52;;;;;;;10.38;100.00;98367.66;5065272;28;20032;-91
2022/10/15 11:23:16;;;;;;;;;;;;;;;10.23;100.00;98366.97;5051921;28;20044;-92
2022/10/15 11:26:13;;;;;;;12.50;1.60;;;;;;;10.26;100.00;98364.78;5077133;28;19946;-92
2022/10/15 11:29:19;;;;;;;7.70;1.40;;;;;;;10.13;100.00;98362.06;5058747;28;20182;-92
2022/10/15 11:32:12;;;;;;;4.53;0.60;;;;;;;9.87;100.00;98366.13;5055606;28;20040;-89
2022/10/15 11:35:39;;;;;;;8.73;1.17;;;;;;;9.68;100.00;98371.84;5055175;28;20040;-89
2022/10/15 11:38:38;;;;;;;11.25;1.90;;;;;;;9.55;100.00;98356.75;5010621;28;20071;-92
2022/10/15 11:41:33;;;;;;;9.55;1.10;;;;;;;9.54;100.00;98368.28;5061411;28;20036;-90
2022/10/15 11:44:32;;;;;;;8.27;1.30;;;;;;;9.54;100.00;98370.94;5057847;28;20029;-88
2022/10/15 11:47:12;;;;;;;12.10;1.58;;;;;;;9.49;100.00;98381.22;5049138;28;20062;-90
2022/10/15 11:50:22;;;;;;;13.07;1.77;;;;;;;9.47;100.00;98375.34;5063173;28;20552;-89
2022/10/15 11:54:00;;;;;;;10.43;1.80;;;;;;;9.28;100.00;98366.22;5056396;28;20048;-91
2022/10/15 11:56:42;;;;;;;10.98;1.48;;;;;;;9.29;100.00;98373.13;4976582;28;20515;-91
2022/10/15 12:00:00;;;;;;;;;;;;;;;;;;;;;
2022/10/15 12:05:43;;;;;;;3.63;0.70;;;;;;;8.83;100.00;98332.91;5048758;28;20048;-89
2022/10/15 12:08:20;;;;;;;4.80;0.82;;;;;;;8.72;100.00;98322.84;5054207;28;20098;-91
2022/10/15 12:11:27;;;;;;;5.10;0.70;;;;;;;8.64;100.00;98326.41;5051309;28;20032;-89
2022/10/15 12:14:07;;;;;;;3.95;0.70;;;;;;;8.65;100.00;98325.41;5032825;28;20089;-90
2022/10/15 12:17:01;;;;;;;5.20;1.13;;;;;;;8.73;100.00;98320.03;5045220;28;20460;-92
2022/10/15 12:19:57;;;;;;;6.22;1.02;;;;;;;8.93;100.00;98308.91;5066187;28;20132;-91
2022/10/15 14:11:13;;;;;;;;;;;;;;;;;;;;;
2022/10/15 15:15:12;;;;;;;4.60;0.80;;;;;;;11.59;87.04;98088.66;4990132;28;20033;-91
2022/10/15 15:27:04;;;;;;;6.72;4.25;;;;;;;11.52;84.16;98077.28;4794295;29;20054;-90
2022/10/15 15:31:32;;;;;;;;;;;;;;;;;;;;;
2022/10/15 16:09:25;;;;;;;;;;;;;;;;;;;;;
2022/10/15 17:05:20;;;;;;;6.57;1.52;;;;;;;10.09;86.44;98073.09;5006619;28;20060;-91
2022/10/15 17:07:49;;;;;;;6.97;2.17;;;;;;;10.10;86.74;98079.97;5014172;28;20036;-90
2022/10/15 17:10:22;;;;;;;9.38;3.42;;;;;;;10.05;86.46;98081.41;5001937;28;21792;-90
2022/10/15 17:12:52;;;;;;;7.82;1.95;;;;;;;10.00;86.61;98086.47;5018307;28;20083;-91
2022/10/15 17:15:19;;;;;;;8.63;1.45;;;;;;;10.00;86.79;98090.94;5014790;28;20072;-92
2022/10/15 17:17:48;;;;;;;4.75;1.40;;;;;;;9.92;87.29;98097.22;5051081;28;20044;-90
2022/10/15 17:20:16;;;;;;;6.78;1.10;;;;;;;9.81;88.05;98095.94;5015381;28;20038;-91
2022/10/15 17:22:45;;;;;;;6.97;2.10;;;;;;;9.78;88.50;98097.16;5028638;28;20108;-90
2022/10/15 17:25:13;;;;;;;4.47;1.58;;;;;;;9.72;89.26;98100.59;5018850;28;20041;-90
2022/10/15 17:27:40;;;;;;;7.35;1.50;;;;;;;9.70;89.67;98104.44;5019227;28;20033;-89
2022/10/15 17:30:09;;;;;;;7.35;1.52;;;;;;;9.58;90.38;98109.44;5030675;28;20063;-90
2022/10/15 17:32:36;;;;;;;10.98;5.00;;;;;;;9.55;91.16;98105.38;5016697;28;20086;-91
2022/10/15 17:35:04;;;;;;;39.28;23.35;;;;;;;9.50;91.98;98119.16;5002151;28;20025;-90
2022/10/15 17:37:33;;;;;;;52.60;27.13;;;;;;;9.49;92.76;98109.59;5015388;28;20579;-89